createdAt,value
2023-04-18T00:02:24.261Z,96749.91
2023-04-18T00:04:52.764Z,96754.25
2023-04-18T00:07:23.352Z,96757.41
2023-04-18T00:09:51.793Z,96760.00
2023-04-18T00:12:20.926Z,96755.59
2023-04-18T00:14:50.351Z,96747.97
2023-04-18T00:17:20.788Z,96747.38
2023-04-18T00:19:50.271Z,96749.47
2023-04-18T00:22:22.252Z,96752.16
2023-04-18T00:24:53.171Z,96746.41
2023-04-18T00:27:22.636Z,96747.22
2023-04-18T00:29:51.069Z,96752.41
2023-04-18T00:32:19.889Z,96747.00
2023-04-18T00:34:48.677Z,96742.41
2023-04-18T00:37:17.254Z,96748.63
2023-04-18T00:39:46.713Z,96741.81
2023-04-18T00:42:16.442Z,96739.25
2023-04-18T00:44:44.767Z,96749.25
2023-04-18T00:47:13.611Z,96743.03
2023-04-18T00:49:41.993Z,96745.94
2023-04-18T00:52:11.562Z,96735.81
2023-04-18T00:54:40.641Z,96745.00
2023-04-18T00:57:09.818Z,96743.78
2023-04-18T00:59:39.868Z,96748.00
2023-04-18T01:02:10.026Z,96750.13
2023-04-18T01:04:38.597Z,96744.75
2023-04-18T01:07:10.594Z,96749.81
2023-04-18T01:09:39.320Z,96742.97
2023-04-18T01:12:07.710Z,96745.97
2023-04-18T01:14:36.797Z,96743.50
2023-04-18T01:17:08.054Z,96746.88
2023-04-18T01:19:36.804Z,96742.34
2023-04-18T01:22:05.199Z,96746.28
2023-04-18T01:24:36.520Z,96739.91
2023-04-18T01:27:05.859Z,96741.78
2023-04-18T01:29:36.752Z,96732.72
2023-04-18T01:32:07.318Z,96739.16
2023-04-18T01:34:36.113Z,96743.53
2023-04-18T01:37:07.989Z,96734.69
2023-04-18T01:39:37.726Z,96745.03
2023-04-18T01:42:07.272Z,96741.97
2023-04-18T01:44:35.708Z,96742.41
2023-04-18T01:47:04.282Z,96739.78
2023-04-18T01:49:34.376Z,96740.47
2023-04-18T01:52:03.228Z,96741.97
2023-04-18T01:54:31.598Z,96735.56
2023-04-18T01:57:01.358Z,96734.75
2023-04-18T01:59:30.679Z,96723.56
2023-04-18T02:02:00.225Z,96724.47
2023-04-18T02:04:28.814Z,96728.16
2023-04-18T02:06:57.223Z,96728.34
2023-04-18T02:09:26.639Z,96725.28
2023-04-18T02:11:56.271Z,96718.91
2023-04-18T02:14:28.112Z,96723.56
2023-04-18T02:16:56.557Z,96732.53
2023-04-18T02:19:25.714Z,96726.25
2023-04-18T02:21:54.156Z,96732.06
2023-04-18T02:24:23.003Z,96733.13
2023-04-18T02:26:52.062Z,96739.34
2023-04-18T02:29:20.968Z,96742.03
2023-04-18T02:31:51.172Z,96737.94
2023-04-18T02:34:19.607Z,96738.16
2023-04-18T02:36:50.407Z,96738.34
2023-04-18T02:39:18.789Z,96738.22
2023-04-18T02:41:48.145Z,96740.50
2023-04-18T02:44:17.423Z,96736.22
2023-04-18T02:46:45.919Z,96741.66
2023-04-18T02:49:17.131Z,96743.53
2023-04-18T02:51:46.566Z,96749.75
2023-04-18T02:54:15.800Z,96751.03
2023-04-18T02:56:57.406Z,96746.69
2023-04-18T02:59:53.867Z,96740.53
2023-04-18T03:02:48.235Z,96741.94
2023-04-18T03:05:40.618Z,96738.00
2023-04-18T03:08:09.618Z,96740.56
2023-04-18T03:10:39.969Z,96741.84
2023-04-18T03:13:08.843Z,96740.00
2023-04-18T03:15:38.848Z,96743.31
2023-04-18T03:18:08.913Z,96741.03
2023-04-18T03:20:42.489Z,96740.00
2023-04-18T03:23:10.871Z,96742.03
2023-04-18T03:25:40.746Z,96735.59
2023-04-18T03:28:09.558Z,96738.28
2023-04-18T03:30:38.547Z,96735.38
2023-04-18T03:33:08.605Z,96740.78
2023-04-18T03:35:38.114Z,96741.81
2023-04-18T03:38:08.651Z,96742.06
2023-04-18T03:40:40.148Z,96738.59
2023-04-18T03:43:17.164Z,96734.47
2023-04-18T03:45:47.292Z,96736.72
2023-04-18T03:48:18.756Z,96738.59
2023-04-18T03:50:48.655Z,96732.59
2023-04-18T03:53:18.768Z,96726.59
2023-04-18T03:55:49.105Z,96704.31
2023-04-18T03:58:23.678Z,96727.94
2023-04-18T04:00:54.483Z,96733.91
2023-04-18T04:03:23.354Z,96738.03
2023-04-18T04:05:52.104Z,96739.72
2023-04-18T04:08:23.451Z,96740.41
2023-04-18T04:10:52.229Z,96742.91
2023-04-18T04:13:21.070Z,96755.75
2023-04-18T04:15:50.308Z,96755.31
2023-04-18T04:18:19.599Z,96751.56
2023-04-18T04:20:49.807Z,96760.31
2023-04-18T04:23:33.150Z,96761.34
2023-04-18T04:26:04.690Z,96754.28
2023-04-18T04:28:42.812Z,96760.97
2023-04-18T04:31:13.016Z,96762.00
2023-04-18T04:33:43.518Z,96762.41
2023-04-18T04:36:19.503Z,96767.00
2023-04-18T04:38:54.721Z,96758.91
2023-04-18T04:41:53.490Z,96761.22
2023-04-18T04:44:26.127Z,96769.94
2023-04-18T04:46:56.044Z,96763.13
2023-04-18T04:49:29.957Z,96768.28
2023-04-18T04:52:01.322Z,96769.94
2023-04-18T04:54:31.876Z,96772.41
2023-04-18T04:57:01.954Z,96773.66
2023-04-18T04:59:30.817Z,96769.06
2023-04-18T05:01:59.258Z,96772.00
2023-04-18T05:04:29.472Z,96775.75
2023-04-18T05:06:58.558Z,96770.94
2023-04-18T05:09:27.942Z,96770.13
2023-04-18T05:11:57.898Z,96749.88
2023-04-18T05:14:26.388Z,96774.09
2023-04-18T05:16:56.873Z,96770.72
2023-04-18T05:19:25.283Z,96778.41
2023-04-18T05:21:54.532Z,96770.28
2023-04-18T05:24:22.892Z,96779.81
2023-04-18T05:26:52.133Z,96779.81
2023-04-18T05:29:22.324Z,96780.00
2023-04-18T05:31:51.941Z,96777.31
2023-04-18T05:34:20.956Z,96781.44
2023-04-18T05:36:49.498Z,96781.81
2023-04-18T05:39:18.936Z,96784.13
2023-04-18T05:41:47.452Z,96794.91
2023-04-18T05:44:18.473Z,96784.72
2023-04-18T05:46:51.344Z,96785.13
2023-04-18T05:49:20.506Z,96787.38
2023-04-18T05:51:49.963Z,96785.28
2023-04-18T05:54:18.539Z,96786.75
2023-04-18T05:56:46.930Z,96783.34
2023-04-18T05:59:16.119Z,96796.38
2023-04-18T06:01:44.533Z,96787.47
2023-04-18T06:04:15.353Z,96783.84
2023-04-18T06:06:44.197Z,96792.38
2023-04-18T06:09:12.635Z,96798.19
2023-04-18T06:11:41.602Z,96795.38
2023-04-18T06:14:10.048Z,96781.16
2023-04-18T06:16:39.462Z,96798.09
2023-04-18T06:19:07.955Z,96790.22
2023-04-18T06:21:38.586Z,96792.88
2023-04-18T06:24:07.627Z,96805.31
2023-04-18T06:26:36.806Z,96805.41
2023-04-18T06:29:05.254Z,96797.31
2023-04-18T06:31:34.030Z,96803.25
2023-04-18T06:34:02.492Z,96803.06
2023-04-18T06:36:31.899Z,96800.00
2023-04-18T06:39:01.670Z,96803.91
2023-04-18T06:41:30.096Z,96794.59
2023-04-18T06:44:04.234Z,96798.78
2023-04-18T06:46:33.423Z,96802.06
2023-04-18T06:49:02.743Z,96797.94
2023-04-18T06:51:31.598Z,96806.47
2023-04-18T06:54:02.987Z,96784.00
2023-04-18T06:56:31.445Z,96731.00
2023-04-18T06:59:00.216Z,96798.34
2023-04-18T07:01:28.630Z,96803.00
2023-04-18T07:03:57.082Z,96800.84
2023-04-18T07:06:26.228Z,96805.97
2023-04-18T07:09:00.018Z,96801.50
2023-04-18T07:11:30.258Z,96799.56
2023-04-18T07:13:58.703Z,96809.78
2023-04-18T07:16:27.089Z,96808.44
2023-04-18T07:18:56.326Z,96817.44
2023-04-18T07:21:24.872Z,96808.19
2023-04-18T07:23:53.687Z,96815.56
2023-04-18T07:26:22.079Z,96804.16
2023-04-18T07:28:52.273Z,96813.28
2023-04-18T07:31:21.254Z,96814.25
2023-04-18T07:33:49.675Z,96813.44
2023-04-18T07:36:18.715Z,96820.56
2023-04-18T07:38:47.364Z,96814.66
2023-04-18T07:41:16.595Z,96811.53
2023-04-18T07:43:46.026Z,96817.53
2023-04-18T07:46:16.182Z,96819.56
2023-04-18T07:48:44.649Z,96815.72
2023-04-18T07:51:13.534Z,96821.78
2023-04-18T07:53:43.560Z,96818.03
2023-04-18T07:56:14.946Z,96819.81
2023-04-18T07:58:43.283Z,96828.09
2023-04-18T08:01:14.077Z,96829.41
2023-04-18T08:03:44.042Z,96831.94
2023-04-18T08:06:13.535Z,96815.88
2023-04-18T08:08:42.055Z,96818.22
2023-04-18T08:11:11.624Z,96833.22
2023-04-18T08:13:40.459Z,96838.28
2023-04-18T08:16:09.843Z,96845.47
2023-04-18T08:18:39.188Z,96818.84
2023-04-18T08:21:09.148Z,96853.28
2023-04-18T08:23:37.962Z,96844.78
2023-04-18T08:26:06.529Z,96846.31
2023-04-18T08:28:35.379Z,96849.97
2023-04-18T08:31:03.836Z,96844.44
2023-04-18T08:33:33.840Z,96846.88
2023-04-18T08:36:02.178Z,96834.25
2023-04-18T08:38:32.991Z,96800.75
2023-04-18T08:41:01.416Z,96836.66
2023-04-18T08:43:31.329Z,96848.84
2023-04-18T08:46:01.547Z,96856.31
2023-04-18T08:48:30.600Z,96849.34
2023-04-18T08:51:00.417Z,96857.34
2023-04-18T08:53:29.256Z,96852.97
2023-04-18T08:56:00.932Z,96861.06
2023-04-18T08:58:32.281Z,96853.63
2023-04-18T09:01:01.903Z,96868.06
2023-04-18T09:03:39.678Z,96865.81
2023-04-18T09:06:10.325Z,96858.03
2023-04-18T09:08:39.134Z,96868.63
2023-04-18T09:11:29.661Z,96871.84
2023-04-18T09:13:59.865Z,96870.88
2023-04-18T09:16:30.292Z,96876.22
2023-04-18T09:19:14.413Z,96874.66
2023-04-18T09:21:46.598Z,96868.06
2023-04-18T09:24:21.129Z,96877.19
2023-04-18T09:26:54.266Z,96883.25
2023-04-18T09:29:23.904Z,96877.28
2023-04-18T09:31:57.334Z,96879.28
2023-04-18T09:34:26.877Z,96865.69
2023-04-18T09:37:10.978Z,96875.03
2023-04-18T09:39:40.688Z,96860.00
2023-04-18T09:42:11.735Z,96882.19
2023-04-18T09:45:00.310Z,96870.06
2023-04-18T09:47:29.371Z,96877.38
2023-04-18T09:49:58.847Z,96873.25
2023-04-18T09:52:27.239Z,96868.78
2023-04-18T09:55:00.934Z,96860.63
2023-04-18T09:57:32.991Z,96871.75
2023-04-18T10:00:10.481Z,96866.47
2023-04-18T10:02:52.354Z,96873.06
2023-04-18T10:05:25.095Z,96876.75
2023-04-18T10:07:54.368Z,96868.25
2023-04-18T10:10:23.277Z,96857.44
2023-04-18T10:12:56.399Z,96862.56
2023-04-18T10:15:28.481Z,96864.38
2023-04-18T10:18:05.623Z,96866.25
2023-04-18T10:20:36.164Z,96864.94
2023-04-18T10:23:36.424Z,96867.50
2023-04-18T10:26:06.161Z,96865.44
2023-04-18T10:28:57.090Z,96866.09
2023-04-18T10:31:27.032Z,96854.22
2023-04-18T10:36:30.318Z,96849.59
2023-04-18T10:39:03.540Z,96862.22
2023-04-18T10:41:33.083Z,96861.41
2023-04-18T10:44:18.665Z,96860.66
2023-04-18T10:47:22.942Z,96856.59
2023-04-18T10:49:58.755Z,96854.03
2023-04-18T10:52:28.424Z,96855.84
2023-04-18T10:55:09.465Z,96843.94
2023-04-18T10:57:46.089Z,96845.16
2023-04-18T11:00:22.092Z,96853.59
2023-04-18T11:02:53.691Z,96837.84
2023-04-18T11:05:25.853Z,96847.47
2023-04-18T11:07:54.653Z,96835.94
2023-04-18T11:10:26.778Z,96845.56
2023-04-18T11:12:56.456Z,96830.34
2023-04-18T11:15:29.145Z,96849.31
2023-04-18T11:18:01.130Z,96841.50
2023-04-18T11:20:30.058Z,96844.00
2023-04-18T11:23:00.624Z,96823.16
2023-04-18T11:25:30.505Z,96831.81
2023-04-18T11:28:01.310Z,96846.03
2023-04-18T11:30:38.496Z,96838.59
2023-04-18T11:33:09.231Z,96842.81
2023-04-18T11:35:38.632Z,96837.00
2023-04-18T11:38:08.671Z,96848.06
2023-04-18T11:40:38.679Z,96840.38
2023-04-18T11:43:08.928Z,96824.75
2023-04-18T11:45:39.281Z,96849.06
2023-04-18T11:48:07.768Z,96829.50
2023-04-18T11:50:38.165Z,96833.88
2023-04-18T11:53:06.946Z,96838.91
2023-04-18T11:55:35.458Z,96841.53
2023-04-18T11:58:06.555Z,96854.41
2023-04-18T12:00:37.104Z,96842.28
2023-04-18T12:03:13.369Z,96855.22
2023-04-18T12:05:43.299Z,96832.97
2023-04-18T12:08:14.048Z,96846.06
2023-04-18T12:10:48.038Z,96845.16
2023-04-18T12:13:18.986Z,96851.50
2023-04-18T12:15:47.845Z,96845.34
2023-04-18T12:18:19.796Z,96854.84
2023-04-18T12:20:52.165Z,96853.75
2023-04-18T12:23:31.015Z,96844.75
2023-04-18T12:26:02.576Z,96852.22
2023-04-18T12:28:31.589Z,96832.41
2023-04-18T12:31:01.156Z,96847.97
2023-04-18T12:33:31.705Z,96849.88
2023-04-18T12:36:01.988Z,96847.75
2023-04-18T12:38:30.354Z,96847.59
2023-04-18T12:40:59.168Z,96850.66
2023-04-18T12:43:27.746Z,96852.31
2023-04-18T12:45:56.564Z,96852.56
2023-04-18T12:48:24.930Z,96852.69
2023-04-18T12:50:54.934Z,96855.69
2023-04-18T12:53:24.205Z,96848.19
2023-04-18T12:55:52.991Z,96854.16
2023-04-18T12:58:21.766Z,96856.50
2023-04-18T13:00:50.191Z,96851.97
2023-04-18T13:03:19.187Z,96857.59
2023-04-18T13:05:47.831Z,96851.22
2023-04-18T13:08:18.377Z,96851.22
2023-04-18T13:10:47.632Z,96847.22
2023-04-18T13:13:16.568Z,96846.69
2023-04-18T13:15:45.513Z,96849.66
2023-04-18T13:18:14.330Z,96849.06
2023-04-18T13:20:44.419Z,96850.72
2023-04-18T13:23:12.785Z,96848.59
2023-04-18T13:25:43.337Z,96847.25
2023-04-18T13:28:11.696Z,96842.47
2023-04-18T13:30:40.466Z,96845.44
2023-04-18T13:33:10.266Z,96842.03
2023-04-18T13:35:39.950Z,96837.22
2023-04-18T13:38:08.354Z,96840.38
2023-04-18T13:40:39.243Z,96848.59
2023-04-18T13:43:10.906Z,96852.97
2023-04-18T13:45:40.098Z,96850.16
2023-04-18T13:48:08.939Z,96855.34
2023-04-18T13:50:37.307Z,96856.28
2023-04-18T13:53:06.151Z,96853.56
2023-04-18T13:55:37.280Z,96856.63
2023-04-18T13:58:07.942Z,96854.59
2023-04-18T14:00:39.621Z,96854.94
2023-04-18T14:03:08.708Z,96854.31
2023-04-18T14:05:37.605Z,96860.56
2023-04-18T14:08:06.517Z,96850.06
2023-04-18T14:10:36.795Z,96860.53
2023-04-18T14:13:05.143Z,96865.91
2023-04-18T14:15:34.527Z,96846.06
2023-04-18T14:18:04.594Z,96858.63
2023-04-18T14:20:35.121Z,96851.34
2023-04-18T14:23:03.501Z,96855.81
2023-04-18T14:25:33.151Z,96866.09
2023-04-18T14:28:07.876Z,96864.09
2023-04-18T14:30:37.093Z,96858.09
2023-04-18T14:33:09.717Z,96853.34
2023-04-18T14:35:38.460Z,96860.72
2023-04-18T14:38:07.475Z,96863.72
2023-04-18T14:40:36.409Z,96852.00
2023-04-18T14:43:04.779Z,96867.34
2023-04-18T14:45:34.816Z,96842.66
2023-04-18T14:48:03.969Z,96858.66
2023-04-18T14:50:33.673Z,96861.00
2023-04-18T14:53:02.770Z,96862.88
2023-04-18T14:55:31.284Z,96856.38
2023-04-18T14:58:00.165Z,96855.97
2023-04-18T15:00:28.644Z,96861.38
2023-04-18T15:02:57.769Z,96863.03
2023-04-18T15:05:26.496Z,96823.34
2023-04-18T15:07:56.451Z,96862.88
2023-04-18T15:10:25.020Z,96867.66
2023-04-18T15:12:54.920Z,96858.91
2023-04-18T15:15:25.164Z,96862.94
2023-04-18T15:17:53.529Z,96863.72
2023-04-18T15:20:24.006Z,96865.19
2023-04-18T15:22:52.687Z,96864.94
2023-04-18T15:25:24.408Z,96867.25
2023-04-18T15:27:53.199Z,96869.56
2023-04-18T15:30:22.379Z,96857.88
2023-04-18T15:32:52.176Z,96864.81
2023-04-18T15:35:21.117Z,96870.63
2023-04-18T15:37:51.285Z,96877.28
2023-04-18T15:40:19.860Z,96867.41
2023-04-18T15:42:53.557Z,96863.03
2023-04-18T15:45:22.594Z,96864.88
2023-04-18T15:47:52.052Z,96864.78
2023-04-18T15:50:20.701Z,96870.88
2023-04-18T15:52:49.828Z,96871.53
2023-04-18T15:55:18.189Z,96869.50
2023-04-18T15:57:48.207Z,96873.75
2023-04-18T16:00:19.768Z,96876.31
2023-04-18T16:02:48.969Z,96884.97
2023-04-18T16:05:17.442Z,96882.72
2023-04-18T16:07:46.490Z,96880.75
2023-04-18T16:10:15.323Z,96884.19
2023-04-18T16:12:44.212Z,96889.78
2023-04-18T16:15:13.663Z,96887.84
2023-04-18T16:17:44.282Z,96893.34
2023-04-18T16:20:13.510Z,96889.59
2023-04-18T16:22:42.136Z,96893.06
2023-04-18T16:27:57.401Z,96880.00
2023-04-18T16:30:25.769Z,96899.00
2023-04-18T16:32:56.086Z,96892.66
2023-04-18T16:35:24.768Z,96894.03
2023-04-18T16:37:53.682Z,96894.88
2023-04-18T16:40:22.076Z,96889.94
2023-04-18T16:42:52.723Z,96893.47
2023-04-18T16:45:21.528Z,96895.50
2023-04-18T16:47:49.925Z,96895.13
2023-04-18T16:50:20.532Z,96899.50
2023-04-18T16:52:48.949Z,96908.38
2023-04-18T16:55:18.861Z,96900.44
2023-04-18T16:57:47.201Z,96896.22
2023-04-18T17:00:16.624Z,96903.69
2023-04-18T17:02:45.247Z,96911.16
2023-04-18T17:05:14.618Z,96911.06
2023-04-18T17:07:45.840Z,96915.75
2023-04-18T17:10:15.051Z,96920.69
2023-04-18T17:12:43.505Z,96914.00
2023-04-18T17:15:12.570Z,96924.84
2023-04-18T17:17:41.372Z,96924.00
2023-04-18T17:20:10.977Z,96924.84
2023-04-18T17:22:40.787Z,96918.41
2023-04-18T17:25:12.166Z,96930.81
2023-04-18T17:27:41.440Z,96930.13
2023-04-18T17:30:11.520Z,96929.88
2023-04-18T17:32:42.996Z,96921.50
2023-04-18T17:35:11.527Z,96932.25
2023-04-18T17:37:39.912Z,96912.34
2023-04-18T17:40:11.888Z,96932.75
2023-04-18T17:42:42.276Z,96932.53
2023-04-18T17:45:11.231Z,96930.41
2023-04-18T17:47:40.806Z,96926.28
2023-04-18T17:50:10.176Z,96932.63
2023-04-18T17:52:39.533Z,96940.78
2023-04-18T17:55:10.825Z,96932.88
2023-04-18T17:57:39.249Z,96939.13
2023-04-18T18:00:12.187Z,96939.91
2023-04-18T18:02:43.691Z,96934.50
2023-04-18T18:05:14.131Z,96937.06
2023-04-18T18:07:47.417Z,96951.44
2023-04-18T18:10:19.961Z,96945.75
2023-04-18T18:12:49.138Z,96949.19
2023-04-18T18:15:18.973Z,96942.81
2023-04-18T18:17:49.396Z,96952.59
2023-04-18T18:20:19.064Z,96950.84
2023-04-18T18:22:48.575Z,96963.34
2023-04-18T18:25:18.347Z,96965.47
2023-04-18T18:27:48.583Z,96973.22
2023-04-18T18:30:17.268Z,96967.88
2023-04-18T18:32:46.579Z,96955.31
2023-04-18T18:35:16.191Z,96968.69
2023-04-18T18:37:44.889Z,96970.56
2023-04-18T18:40:15.155Z,96963.34
2023-04-18T18:42:45.021Z,96984.03
2023-04-18T18:45:15.027Z,96980.13
2023-04-18T18:47:43.453Z,96972.06
2023-04-18T18:50:12.744Z,96983.63
2023-04-18T18:52:43.025Z,96987.38
2023-04-18T18:55:13.687Z,96986.63
2023-04-18T18:57:42.034Z,96986.25
2023-04-18T19:00:13.761Z,96983.47
2023-04-18T19:02:42.850Z,96979.78
2023-04-18T19:05:12.742Z,96983.94
2023-04-18T19:07:43.352Z,96980.75
2023-04-18T19:10:12.177Z,96991.34
2023-04-18T19:12:41.261Z,96984.66
2023-04-18T19:15:10.743Z,96980.19
2023-04-18T19:17:42.101Z,96984.47
2023-04-18T19:20:10.724Z,96982.31
2023-04-18T19:22:40.084Z,96979.13
2023-04-18T19:25:09.918Z,96989.50
2023-04-18T19:27:39.971Z,96982.56
2023-04-18T19:30:10.573Z,96981.06
2023-04-18T19:32:40.843Z,96984.59
2023-04-18T19:35:13.077Z,96980.38
2023-04-18T19:38:01.698Z,96986.84
2023-04-18T19:40:30.820Z,96982.09
2023-04-18T19:42:59.221Z,96978.72
2023-04-18T19:45:28.772Z,96985.78
2023-04-18T19:47:58.513Z,96982.50
2023-04-18T19:50:27.601Z,96989.22
2023-04-18T19:52:58.871Z,96992.13
2023-04-18T19:55:27.515Z,96992.13
2023-04-18T19:57:57.473Z,96982.00
2023-04-18T20:00:25.876Z,96986.59
2023-04-18T20:02:54.391Z,96986.78
2023-04-18T20:05:24.753Z,96984.31
2023-04-18T20:07:54.655Z,96986.78
2023-04-18T20:10:23.157Z,96983.50
2023-04-18T20:12:51.533Z,96984.31
2023-04-18T20:15:20.300Z,96985.38
2023-04-18T20:17:48.688Z,96987.25
2023-04-18T20:20:17.619Z,96992.69
2023-04-18T20:22:47.763Z,96983.97
2023-04-18T20:25:17.888Z,96980.88
2023-04-18T20:27:46.244Z,96983.50
2023-04-18T20:30:15.821Z,96985.38
2023-04-18T20:32:44.314Z,96983.97
2023-04-18T20:35:13.739Z,96989.81
2023-04-18T20:37:42.146Z,96990.53
2023-04-18T20:40:13.895Z,96984.94
2023-04-18T20:42:42.240Z,96993.31
2023-04-18T20:45:11.722Z,96988.94
2023-04-18T20:47:41.242Z,96994.56
2023-04-18T20:50:10.650Z,96993.16
2023-04-18T20:52:43.101Z,96989.03
2023-04-18T20:55:13.146Z,96989.47
2023-04-18T20:57:43.187Z,96992.88
2023-04-18T21:00:13.894Z,96981.41
2023-04-18T21:02:43.385Z,96989.94
2023-04-18T21:05:12.046Z,96985.56
2023-04-18T21:07:40.433Z,96983.94
2023-04-18T21:10:09.951Z,96986.84
2023-04-18T21:12:39.818Z,96984.94
2023-04-18T21:15:09.678Z,96987.06
2023-04-18T21:17:38.063Z,96980.00
2023-04-18T21:20:08.513Z,96974.88
2023-04-18T21:22:36.937Z,96983.00
2023-04-18T21:25:07.390Z,96982.94
2023-04-18T21:27:35.860Z,96977.91
2023-04-18T21:30:07.878Z,96982.72
2023-04-18T21:32:36.402Z,96988.13
2023-04-18T21:35:06.377Z,96982.09
2023-04-18T21:37:34.995Z,96979.63
2023-04-18T21:40:04.941Z,96979.41
2023-04-18T21:42:35.484Z,96976.69
2023-04-18T21:45:04.161Z,96983.97
2023-04-18T21:47:35.088Z,96970.69
2023-04-18T21:50:04.154Z,96974.22
2023-04-18T21:52:33.337Z,96973.97
2023-04-18T21:55:01.772Z,96975.03
2023-04-18T21:57:30.834Z,96953.97
2023-04-18T21:59:59.757Z,96975.50
2023-04-18T22:02:28.789Z,96972.78
2023-04-18T22:04:59.548Z,96974.88
2023-04-18T22:07:29.503Z,96973.47
2023-04-18T22:10:00.329Z,96972.63
2023-04-18T22:12:28.659Z,96963.44
2023-04-18T22:14:58.113Z,96928.28
2023-04-18T22:17:27.051Z,96952.84
2023-04-18T22:19:56.447Z,96955.88
2023-04-18T22:22:26.135Z,96957.00
2023-04-18T22:24:55.294Z,96955.53
2023-04-18T22:27:23.655Z,96950.38
2023-04-18T22:29:52.554Z,96948.81
2023-04-18T22:32:21.506Z,96950.50
2023-04-18T22:34:49.870Z,96959.19
2023-04-18T22:37:22.420Z,96951.69
2023-04-18T22:39:59.371Z,96965.03
2023-04-18T22:43:00.940Z,96957.97
2023-04-18T22:45:29.305Z,96957.50
2023-04-18T22:47:58.394Z,96955.66
2023-04-18T22:50:27.372Z,96957.97
2023-04-18T22:52:57.606Z,96957.97
2023-04-18T22:55:27.371Z,96949.84
2023-04-18T22:57:57.130Z,96954.66
2023-04-18T23:00:25.442Z,96930.44
2023-04-18T23:02:54.814Z,96956.78
2023-04-18T23:05:23.828Z,96955.72
2023-04-18T23:07:52.171Z,96957.38
2023-04-18T23:10:22.195Z,96958.03
2023-04-18T23:12:52.464Z,96956.09
2023-04-18T23:15:22.856Z,96958.16
2023-04-18T23:17:53.425Z,96954.16
2023-04-18T23:20:24.114Z,96953.31
2023-04-18T23:22:52.767Z,96953.03
2023-04-18T23:25:22.687Z,96959.25
2023-04-18T23:27:52.443Z,96953.78
2023-04-18T23:30:22.525Z,96942.13
2023-04-18T23:32:51.013Z,96947.88
2023-04-18T23:35:20.179Z,96947.41
2023-04-18T23:37:49.156Z,96944.50
2023-04-18T23:40:17.897Z,96947.28
2023-04-18T23:42:47.478Z,96938.31
2023-04-18T23:45:17.345Z,96937.22
2023-04-18T23:47:46.165Z,96941.34
2023-04-18T23:50:14.541Z,96929.94
2023-04-18T23:52:43.814Z,96928.03
2023-04-18T23:55:12.278Z,96933.97
2023-04-18T23:57:41.845Z,96937.09
